createdAt,value
2022-10-12T00:00:57.522Z,16.45
2022-10-12T00:03:25.215Z,16.38
2022-10-12T00:06:17.809Z,16.41
2022-10-12T00:08:47.061Z,16.30
2022-10-12T00:11:19.623Z,16.33
2022-10-12T00:13:47.816Z,16.33
2022-10-12T00:16:17.954Z,16.22
2022-10-12T00:18:45.647Z,16.11
2022-10-12T00:21:17.062Z,16.12
2022-10-12T00:23:45.761Z,16.24
2022-10-12T00:26:21.257Z,16.15
2022-10-12T00:28:49.230Z,16.20
2022-10-12T00:31:20.289Z,16.24
2022-10-12T00:33:48.983Z,16.23
2022-10-12T00:36:26.028Z,16.13
2022-10-12T00:38:57.264Z,16.07
2022-10-12T00:41:29.547Z,16.03
2022-10-12T00:43:58.696Z,16.12
2022-10-12T00:46:42.671Z,16.20
2022-10-12T00:49:20.630Z,16.14
2022-10-12T00:52:01.942Z,16.03
2022-10-12T00:54:35.556Z,16.09
2022-10-12T00:57:06.194Z,16.06
2022-10-12T00:59:56.490Z,15.95
2022-10-12T01:02:26.991Z,15.97
2022-10-12T01:04:55.000Z,15.94
2022-10-12T01:07:22.860Z,15.95
2022-10-12T01:09:51.101Z,16.02
2022-10-12T01:12:19.695Z,15.96
2022-10-12T01:14:47.251Z,16.03
2022-10-12T01:17:44.783Z,16.00
2022-10-12T01:20:26.045Z,15.99
2022-10-12T01:23:15.168Z,15.96
2022-10-12T01:26:19.333Z,15.92
2022-10-12T01:29:19.319Z,15.96
2022-10-12T01:31:50.688Z,15.89
2022-10-12T01:34:45.556Z,15.91
2022-10-12T01:37:31.053Z,15.91
2022-10-12T01:40:07.999Z,15.79
2022-10-12T01:42:41.049Z,15.77
2022-10-12T01:45:18.585Z,15.80
2022-10-12T01:47:55.390Z,15.74
2022-10-12T01:50:31.931Z,15.81
2022-10-12T01:53:18.807Z,15.86
2022-10-12T01:56:07.535Z,15.83
2022-10-12T01:59:02.350Z,15.76
2022-10-12T02:01:57.431Z,15.77
2022-10-12T02:04:49.754Z,15.78
2022-10-12T02:07:39.777Z,15.84
2022-10-12T02:10:13.622Z,15.93
2022-10-12T02:12:43.767Z,15.83
2022-10-12T02:15:14.347Z,15.87
2022-10-12T02:17:46.791Z,15.80
2022-10-12T02:20:17.935Z,15.73
2022-10-12T02:22:50.135Z,15.69
2022-10-12T02:25:22.915Z,15.69
2022-10-12T02:28:07.861Z,15.77
2022-10-12T02:30:47.988Z,15.84
2022-10-12T02:33:30.321Z,15.92
2022-10-12T02:36:09.356Z,15.87
2022-10-12T02:38:47.404Z,15.90
2022-10-12T02:41:28.348Z,15.87
2022-10-12T02:44:02.193Z,15.88
2022-10-12T02:46:34.331Z,15.85
2022-10-12T02:49:03.348Z,15.83
2022-10-12T02:51:33.242Z,15.84
2022-10-12T02:54:04.399Z,15.80
2022-10-12T02:56:31.910Z,15.80
2022-10-12T02:58:59.771Z,15.86
2022-10-12T03:01:27.492Z,15.84
2022-10-12T03:03:55.120Z,15.97
2022-10-12T03:06:22.653Z,15.96
2022-10-12T03:08:50.268Z,15.93
2022-10-12T03:11:17.782Z,15.93
2022-10-12T03:13:45.359Z,15.99
2022-10-12T03:16:12.827Z,15.93
2022-10-12T03:18:40.857Z,15.94
2022-10-12T03:21:08.645Z,15.88
2022-10-12T03:23:36.231Z,15.93
2022-10-12T03:26:04.816Z,15.97
2022-10-12T03:28:33.490Z,16.00
2022-10-12T03:31:01.475Z,15.93
2022-10-12T03:33:29.350Z,15.91
2022-10-12T03:35:57.268Z,15.90
2022-10-12T03:38:24.791Z,15.86
2022-10-12T03:40:52.361Z,15.88
2022-10-12T03:43:20.055Z,15.80
2022-10-12T03:45:47.788Z,15.81
2022-10-12T03:48:15.337Z,15.81
2022-10-12T03:50:42.923Z,15.93
2022-10-12T03:53:10.794Z,15.83
2022-10-12T03:55:38.337Z,15.89
2022-10-12T03:58:05.929Z,15.88
2022-10-12T04:00:33.545Z,15.85
2022-10-12T04:03:02.304Z,15.83
2022-10-12T04:05:31.466Z,15.77
2022-10-12T04:08:00.240Z,15.82
2022-10-12T04:10:27.889Z,15.89
2022-10-12T04:12:55.569Z,15.90
2022-10-12T04:17:55.583Z,15.92
2022-10-12T04:20:23.071Z,15.84
2022-10-12T04:22:50.705Z,15.88
2022-10-12T04:25:18.319Z,15.76
2022-10-12T04:27:45.946Z,15.85
2022-10-12T04:30:13.986Z,15.94
2022-10-12T04:32:41.532Z,16.00
2022-10-12T04:35:09.301Z,15.91
2022-10-12T04:37:37.028Z,15.81
2022-10-12T04:40:05.264Z,15.84
2022-10-12T04:42:32.895Z,15.94
2022-10-12T04:45:00.438Z,15.88
2022-10-12T04:47:28.106Z,15.98
2022-10-12T04:49:55.695Z,15.92
2022-10-12T04:52:23.267Z,15.96
2022-10-12T04:54:50.813Z,16.01
2022-10-12T04:57:18.344Z,15.95
2022-10-12T04:59:45.951Z,15.95
2022-10-12T05:02:13.464Z,15.88
2022-10-12T05:04:41.046Z,15.90
2022-10-12T05:07:08.628Z,15.88
2022-10-12T05:09:36.332Z,15.93
2022-10-12T05:12:04.012Z,15.99
2022-10-12T05:14:35.823Z,16.01
2022-10-12T05:17:04.171Z,15.95
2022-10-12T05:19:31.759Z,16.05
2022-10-12T05:21:59.417Z,15.98
2022-10-12T05:24:27.043Z,16.02
2022-10-12T05:26:54.759Z,16.01
2022-10-12T05:29:22.337Z,16.01
2022-10-12T05:31:50.018Z,16.06
2022-10-12T05:34:18.123Z,16.11
2022-10-12T05:36:45.761Z,16.11
2022-10-12T05:39:13.329Z,16.14
2022-10-12T05:41:40.877Z,16.21
2022-10-12T05:44:08.437Z,16.27
2022-10-12T05:46:36.056Z,16.30
2022-10-12T05:49:03.815Z,16.33
2022-10-12T05:51:31.359Z,16.50
2022-10-12T05:53:58.842Z,16.44
2022-10-12T05:56:26.375Z,16.45
2022-10-12T05:58:53.900Z,16.47
2022-10-12T06:01:21.522Z,16.58
2022-10-12T06:03:49.056Z,16.57
2022-10-12T06:06:17.467Z,16.55
2022-10-12T06:08:45.011Z,16.48
2022-10-12T06:11:13.369Z,16.38
2022-10-12T06:13:42.297Z,16.49
2022-10-12T06:16:12.913Z,16.51
2022-10-12T06:18:40.486Z,16.50
2022-10-12T06:21:28.847Z,16.49
2022-10-12T06:23:55.792Z,16.43
2022-10-12T06:26:24.975Z,16.43
2022-10-12T06:28:52.589Z,16.41
2022-10-12T06:31:26.095Z,16.52
2022-10-12T06:33:54.493Z,16.59
2022-10-12T06:36:23.732Z,16.66
2022-10-12T06:38:51.449Z,16.77
2022-10-12T06:41:18.996Z,16.74
2022-10-12T06:43:46.585Z,16.73
2022-10-12T06:46:15.271Z,16.77
2022-10-12T06:48:42.876Z,16.80
2022-10-12T06:51:10.420Z,16.85
2022-10-12T06:53:38.050Z,16.90
2022-10-12T06:56:10.404Z,17.03
2022-10-12T06:58:38.260Z,17.06
2022-10-12T07:01:08.404Z,17.08
2022-10-12T07:03:36.207Z,17.10
2022-10-12T07:06:12.811Z,17.17
2022-10-12T07:08:41.457Z,17.23
2022-10-12T07:11:13.941Z,17.22
2022-10-12T07:13:41.773Z,17.23
2022-10-12T07:16:09.575Z,17.28
2022-10-12T07:18:37.380Z,17.39
2022-10-12T07:21:05.033Z,17.42
2022-10-12T07:23:34.575Z,17.46
2022-10-12T07:26:02.289Z,17.59
2022-10-12T07:28:29.935Z,17.62
2022-10-12T07:31:03.721Z,17.64
2022-10-12T07:33:36.009Z,17.68
2022-10-12T07:36:22.039Z,17.98
2022-10-12T07:38:50.606Z,18.08
2022-10-12T07:41:18.800Z,18.14
2022-10-12T07:43:46.551Z,17.97
2022-10-12T07:46:14.120Z,18.70
2022-10-12T07:48:47.249Z,18.37
2022-10-12T07:51:18.108Z,18.30
2022-10-12T07:53:46.005Z,18.36
2022-10-12T07:56:15.502Z,18.24
2022-10-12T07:58:50.648Z,18.21
2022-10-12T08:01:20.971Z,18.21
2022-10-12T08:03:49.152Z,18.31
2022-10-12T08:06:21.051Z,18.40
2022-10-12T08:08:49.252Z,18.49
2022-10-12T08:11:17.688Z,18.63
2022-10-12T08:13:46.155Z,18.73
2022-10-12T08:16:18.459Z,18.70
2022-10-12T08:18:46.989Z,18.80
2022-10-12T08:21:16.668Z,18.76
2022-10-12T08:23:48.030Z,18.90
2022-10-12T08:26:16.231Z,18.87
2022-10-12T08:28:44.052Z,18.85
2022-10-12T08:31:15.011Z,18.86
2022-10-12T08:33:42.646Z,19.62
2022-10-12T08:36:13.133Z,19.47
2022-10-12T08:38:43.190Z,19.27
2022-10-12T08:41:38.184Z,19.42
2022-10-12T08:44:52.815Z,19.64
2022-10-12T08:47:34.251Z,19.94
2022-10-12T08:50:34.264Z,20.40
2022-10-12T08:53:28.415Z,20.30
2022-10-12T08:55:56.982Z,20.28
2022-10-12T08:58:35.888Z,20.16
2022-10-12T09:01:37.410Z,20.20
2022-10-12T09:04:42.069Z,20.26
2022-10-12T09:07:24.366Z,20.34
2022-10-12T09:10:10.839Z,20.38
2022-10-12T09:12:43.858Z,20.59
2022-10-12T09:15:21.684Z,20.69
2022-10-12T09:17:58.522Z,20.63
2022-10-12T09:20:48.509Z,20.76
2022-10-12T09:23:32.581Z,20.64
2022-10-12T09:26:26.544Z,20.61
2022-10-12T09:28:58.534Z,20.99
2022-10-12T09:32:36.002Z,20.85
2022-10-12T09:35:08.195Z,20.61
2022-10-12T09:37:37.303Z,20.79
2022-10-12T09:40:05.734Z,20.92
2022-10-12T09:42:34.833Z,20.90
2022-10-12T09:45:22.762Z,20.86
2022-10-12T09:48:13.005Z,20.88
2022-10-12T09:50:58.089Z,20.88
2022-10-12T09:53:32.901Z,20.97
2022-10-12T09:56:09.716Z,20.92
2022-10-12T09:58:52.256Z,21.11
2022-10-12T10:01:33.400Z,21.16
2022-10-12T10:04:24.603Z,21.26
2022-10-12T10:06:52.296Z,21.42
2022-10-12T10:09:36.797Z,21.51
2022-10-12T10:13:02.986Z,21.68
2022-10-12T10:15:35.131Z,21.71
2022-10-12T10:18:59.713Z,21.83
2022-10-12T10:21:37.973Z,21.81
2022-10-12T10:24:31.159Z,21.90
2022-10-12T10:27:04.161Z,22.31
2022-10-12T10:29:41.551Z,22.26
2022-10-12T10:32:26.613Z,22.13
2022-10-12T10:35:04.473Z,22.23
2022-10-12T10:37:34.004Z,22.42
2022-10-12T10:40:02.636Z,22.45
2022-10-12T10:42:33.760Z,22.87
2022-10-12T10:45:11.223Z,22.85
2022-10-12T10:47:46.776Z,23.04
2022-10-12T10:50:37.672Z,23.10
2022-10-12T10:53:18.714Z,23.47
2022-10-12T10:55:54.875Z,23.55
2022-10-12T10:58:44.107Z,23.36
2022-10-12T11:01:37.820Z,23.08
2022-10-12T11:04:22.732Z,23.46
2022-10-12T11:07:00.507Z,23.10
2022-10-12T11:09:34.501Z,23.08
2022-10-12T11:12:33.029Z,23.30
2022-10-12T11:15:41.706Z,23.38
2022-10-12T11:18:37.708Z,23.70
2022-10-12T11:21:29.163Z,23.51
2022-10-12T11:24:25.723Z,23.38
2022-10-12T11:27:13.125Z,23.20
2022-10-12T11:29:40.803Z,23.75
2022-10-12T11:32:15.071Z,24.21
2022-10-12T11:35:00.157Z,24.04
2022-10-12T11:37:48.226Z,24.14
2022-10-12T11:41:02.564Z,24.50
2022-10-12T11:44:01.932Z,25.24
2022-10-12T11:46:46.273Z,24.68
2022-10-12T11:49:46.058Z,24.53
2022-10-12T11:52:14.088Z,24.20
2022-10-12T11:55:18.414Z,24.47
2022-10-12T11:57:47.803Z,24.41
2022-10-12T12:00:26.360Z,24.08
2022-10-12T12:03:31.174Z,24.33
2022-10-12T12:06:30.504Z,23.72
2022-10-12T12:09:03.680Z,24.29
2022-10-12T12:11:35.130Z,25.49
2022-10-12T12:14:28.518Z,26.14
2022-10-12T12:17:31.545Z,26.61
2022-10-12T12:20:39.104Z,26.54
2022-10-12T12:23:26.024Z,25.97
2022-10-12T12:26:16.100Z,26.37
2022-10-12T12:29:12.327Z,26.74
2022-10-12T12:31:42.991Z,27.23
2022-10-12T12:34:19.383Z,27.42
2022-10-12T12:36:51.763Z,27.32
2022-10-12T12:39:33.637Z,27.69
2022-10-12T12:42:09.759Z,28.26
2022-10-12T12:44:44.442Z,28.62
2022-10-12T12:47:43.530Z,28.95
2022-10-12T12:50:32.137Z,29.28
2022-10-12T12:53:20.641Z,29.54
2022-10-12T12:56:06.645Z,29.51
2022-10-12T12:59:24.835Z,29.25
2022-10-12T13:02:36.589Z,29.11
2022-10-12T13:05:40.162Z,29.40
2022-10-12T13:08:35.170Z,29.49
2022-10-12T13:11:37.546Z,28.98
2022-10-12T13:14:23.025Z,29.22
2022-10-12T13:17:35.898Z,28.97
2022-10-12T13:20:29.534Z,28.69
2022-10-12T13:23:02.895Z,29.05
2022-10-12T13:25:56.869Z,29.77
2022-10-12T13:28:31.742Z,30.37
2022-10-12T13:31:05.070Z,30.49
2022-10-12T13:33:39.296Z,30.55
2022-10-12T13:36:22.483Z,31.15
2022-10-12T13:39:13.375Z,30.85
2022-10-12T13:41:41.381Z,30.83
2022-10-12T13:44:20.758Z,31.27
2022-10-12T13:46:52.333Z,30.59
2022-10-12T13:49:22.216Z,30.91
2022-10-12T13:51:55.798Z,30.55
2022-10-12T13:54:37.817Z,31.35
2022-10-12T13:57:43.094Z,30.74
2022-10-12T14:00:16.435Z,30.65
2022-10-12T14:03:02.236Z,30.29
2022-10-12T14:05:33.511Z,30.16
2022-10-12T14:08:09.828Z,30.93
2022-10-12T14:10:39.022Z,31.56
2022-10-12T14:13:07.536Z,30.97
2022-10-12T14:15:39.270Z,29.97
2022-10-12T14:18:43.140Z,29.27
2022-10-12T14:21:23.657Z,27.74
2022-10-12T14:24:00.959Z,26.63
2022-10-12T14:26:29.686Z,26.19
2022-10-12T14:28:59.412Z,25.54
2022-10-12T14:31:54.774Z,25.10
2022-10-12T14:34:28.524Z,24.89
2022-10-12T14:37:27.342Z,24.52
2022-10-12T14:40:00.906Z,24.19
2022-10-12T14:42:31.735Z,24.17
2022-10-12T14:45:01.174Z,23.70
2022-10-12T14:47:40.251Z,23.41
2022-10-12T14:50:12.044Z,23.31
2022-10-12T14:52:55.420Z,23.12
2022-10-12T14:55:31.141Z,22.92
2022-10-12T14:57:59.882Z,22.79
2022-10-12T15:00:34.519Z,22.82
2022-10-12T15:03:03.759Z,23.43
2022-10-12T15:05:33.578Z,23.06
2022-10-12T15:08:07.604Z,22.52
2022-10-12T15:10:37.046Z,22.38
2022-10-12T15:13:04.936Z,22.57
2022-10-12T15:15:49.989Z,22.32
2022-10-12T15:18:17.664Z,22.08
2022-10-12T15:20:49.332Z,22.05
2022-10-12T15:23:17.569Z,21.87
2022-10-12T15:25:55.463Z,21.88
2022-10-12T15:28:25.606Z,21.87
2022-10-12T15:33:42.431Z,22.34
2022-10-12T15:36:10.599Z,21.74
2022-10-12T15:38:38.349Z,21.64
2022-10-12T15:41:06.708Z,21.48
2022-10-12T15:43:38.100Z,21.39
2022-10-12T15:46:12.395Z,21.24
2022-10-12T15:48:40.565Z,21.15
2022-10-12T15:51:23.134Z,21.22
2022-10-12T15:53:56.594Z,21.13
2022-10-12T15:56:24.302Z,20.99
2022-10-12T15:58:55.077Z,20.93
2022-10-12T16:01:25.559Z,20.85
2022-10-12T16:03:53.288Z,20.84
2022-10-12T16:06:24.126Z,20.86
2022-10-12T16:08:51.667Z,20.77
2022-10-12T16:11:20.329Z,20.81
2022-10-12T16:13:55.462Z,20.75
2022-10-12T16:16:24.321Z,20.78
2022-10-12T16:18:54.403Z,20.81
2022-10-12T16:21:22.533Z,20.76
2022-10-12T16:23:50.031Z,20.76
2022-10-12T16:26:17.632Z,20.75
2022-10-12T16:28:45.459Z,20.76
2022-10-12T16:31:18.713Z,20.67
2022-10-12T16:33:46.790Z,20.73
2022-10-12T16:36:17.440Z,20.63
2022-10-12T16:38:46.829Z,20.67
2022-10-12T16:41:17.046Z,20.58
2022-10-12T16:43:46.667Z,20.54
2022-10-12T16:46:14.219Z,20.51
2022-10-12T16:48:45.139Z,20.50
2022-10-12T16:51:14.737Z,20.36
2022-10-12T16:53:42.514Z,20.33
2022-10-12T16:56:10.355Z,20.37
2022-10-12T16:58:39.101Z,20.30
2022-10-12T17:01:14.213Z,20.27
2022-10-12T17:03:42.014Z,20.31
2022-10-12T17:06:09.999Z,20.30
2022-10-12T17:08:39.418Z,20.14
2022-10-12T17:11:22.204Z,20.03
2022-10-12T17:13:49.853Z,20.02
2022-10-12T17:16:37.699Z,20.02
2022-10-12T17:19:05.364Z,20.05
2022-10-12T17:21:35.057Z,20.00
2022-10-12T17:24:03.344Z,19.96
2022-10-12T17:26:30.977Z,19.92
2022-10-12T17:28:58.438Z,19.89
2022-10-12T17:31:26.723Z,19.83
2022-10-12T17:33:56.630Z,19.77
2022-10-12T17:36:28.224Z,19.76
2022-10-12T17:38:58.348Z,19.71
2022-10-12T17:41:49.040Z,19.63
2022-10-12T17:44:37.341Z,19.56
2022-10-12T17:47:05.715Z,19.45
2022-10-12T17:49:42.700Z,19.44
2022-10-12T17:52:11.729Z,19.39
2022-10-12T17:54:39.336Z,19.24
2022-10-12T17:57:07.782Z,19.21
2022-10-12T17:59:59.091Z,19.16
2022-10-12T18:02:27.374Z,19.04
2022-10-12T18:04:54.999Z,19.01
2022-10-12T18:07:24.725Z,18.95
2022-10-12T18:09:53.251Z,18.90
2022-10-12T18:12:21.298Z,18.82
2022-10-12T18:14:49.042Z,18.74
2022-10-12T18:17:19.300Z,18.65
2022-10-12T18:19:51.868Z,18.57
2022-10-12T18:22:20.394Z,18.45
2022-10-12T18:24:49.736Z,18.44
2022-10-12T18:27:20.369Z,18.40
2022-10-12T18:29:48.134Z,18.28
2022-10-12T18:32:16.306Z,18.22
2022-10-12T18:34:44.697Z,18.15
2022-10-12T18:37:12.827Z,18.10
2022-10-12T18:39:42.477Z,17.98
2022-10-12T18:42:10.232Z,17.99
2022-10-12T18:44:38.882Z,17.89
2022-10-12T18:47:06.516Z,17.91
2022-10-12T18:49:34.433Z,17.92
2022-10-12T18:52:03.405Z,17.94
2022-10-12T18:54:34.397Z,17.82
2022-10-12T18:57:02.689Z,17.73
2022-10-12T18:59:33.718Z,17.79
2022-10-12T19:02:03.784Z,17.75
2022-10-12T19:04:31.382Z,17.88
2022-10-12T19:07:00.299Z,17.70
2022-10-12T19:09:32.205Z,17.75
2022-10-12T19:12:00.862Z,17.59
2022-10-12T19:14:28.511Z,17.49
2022-10-12T19:16:57.546Z,17.39
2022-10-12T19:19:27.364Z,17.38
2022-10-12T19:21:55.040Z,17.32
2022-10-12T19:24:23.023Z,17.26
2022-10-12T19:26:50.675Z,17.13
2022-10-12T19:29:18.307Z,17.07
2022-10-12T19:31:48.707Z,16.97
2022-10-12T19:34:19.201Z,17.78
2022-10-12T19:36:48.212Z,16.98
2022-10-12T19:39:20.539Z,16.72
2022-10-12T19:41:50.292Z,16.47
2022-10-12T19:44:21.351Z,16.47
2022-10-12T19:46:49.514Z,16.33
2022-10-12T19:49:18.972Z,16.31
2022-10-12T19:51:47.370Z,16.39
2022-10-12T19:54:17.913Z,16.32
2022-10-12T19:56:46.718Z,16.23
2022-10-12T19:59:14.928Z,16.32
2022-10-12T20:01:47.758Z,16.35
2022-10-12T20:04:15.859Z,16.25
2022-10-12T20:06:43.329Z,16.03
2022-10-12T20:09:11.333Z,15.99
2022-10-12T20:11:39.090Z,16.15
2022-10-12T20:14:08.058Z,15.97
2022-10-12T20:16:36.556Z,15.93
2022-10-12T20:19:07.268Z,15.88
2022-10-12T20:21:36.622Z,15.81
2022-10-12T20:24:05.028Z,15.77
2022-10-12T20:26:34.633Z,15.97
2022-10-12T20:29:02.517Z,15.69
2022-10-12T20:31:30.111Z,15.77
2022-10-12T20:33:59.346Z,15.76
2022-10-12T20:36:31.428Z,15.60
2022-10-12T20:39:00.270Z,15.48
2022-10-12T20:41:29.489Z,15.61
2022-10-12T20:43:59.721Z,15.66
2022-10-12T20:46:29.279Z,15.60
2022-10-12T20:49:00.848Z,15.56
2022-10-12T20:51:44.589Z,15.45
2022-10-12T20:54:19.254Z,15.28
2022-10-12T20:56:52.388Z,15.31
2022-10-12T20:59:20.010Z,15.24
2022-10-12T21:01:49.379Z,15.18
2022-10-12T21:04:16.868Z,15.02
2022-10-12T21:06:44.366Z,14.94
2022-10-12T21:09:14.687Z,14.95
2022-10-12T21:11:43.820Z,15.01
2022-10-12T21:14:13.525Z,14.93
2022-10-12T21:16:41.319Z,14.91
2022-10-12T21:19:10.883Z,14.74
2022-10-12T21:21:38.488Z,14.61
2022-10-12T21:24:06.232Z,14.61
2022-10-12T21:26:33.920Z,14.47
2022-10-12T21:29:02.089Z,14.63
2022-10-12T21:31:32.714Z,14.59
2022-10-12T21:34:06.923Z,14.54
2022-10-12T21:36:38.545Z,14.50
2022-10-12T21:39:13.915Z,14.46
2022-10-12T21:41:42.285Z,14.27
2022-10-12T21:44:11.766Z,14.23
2022-10-12T21:46:40.555Z,14.12
2022-10-12T21:49:08.513Z,14.33
2022-10-12T21:51:38.255Z,14.27
2022-10-12T21:54:07.108Z,14.17
2022-10-12T21:56:37.289Z,14.12
2022-10-12T21:59:06.883Z,14.03
2022-10-12T22:01:40.362Z,14.14
2022-10-12T22:04:14.685Z,13.99
2022-10-12T22:06:43.446Z,13.89
2022-10-12T22:09:16.830Z,13.85
2022-10-12T22:11:46.056Z,13.82
2022-10-12T22:14:17.291Z,13.84
2022-10-12T22:16:45.852Z,13.87
2022-10-12T22:19:19.046Z,13.81
2022-10-12T22:21:48.720Z,13.83
2022-10-12T22:24:16.722Z,13.79
2022-10-12T22:26:44.479Z,13.86
2022-10-12T22:29:13.520Z,13.81
2022-10-12T22:31:41.813Z,13.71
2022-10-12T22:34:11.224Z,13.80
2022-10-12T22:36:38.916Z,13.71
2022-10-12T22:39:08.703Z,13.73
2022-10-12T22:41:36.359Z,13.71
2022-10-12T22:44:03.931Z,13.65
2022-10-12T22:46:31.493Z,13.61
2022-10-12T22:48:59.130Z,13.79
2022-10-12T22:51:33.869Z,13.83
2022-10-12T22:54:02.752Z,13.66
2022-10-12T22:56:30.518Z,13.67
2022-10-12T22:59:01.527Z,13.58
2022-10-12T23:01:29.845Z,13.56
2022-10-12T23:03:57.476Z,13.62
2022-10-12T23:06:25.934Z,13.55
2022-10-12T23:08:53.718Z,13.54
2022-10-12T23:11:26.171Z,13.57
2022-10-12T23:13:55.020Z,13.55
2022-10-12T23:16:33.900Z,13.48
2022-10-12T23:19:05.133Z,13.45
2022-10-12T23:21:34.969Z,13.36
2022-10-12T23:24:05.162Z,13.37
2022-10-12T23:26:36.125Z,13.34
2022-10-12T23:29:03.851Z,13.49
2022-10-12T23:31:32.410Z,13.47
2022-10-12T23:34:06.355Z,13.58
2022-10-12T23:36:35.221Z,13.55
2022-10-12T23:39:05.258Z,13.59
2022-10-12T23:41:33.033Z,13.52
2022-10-12T23:44:00.551Z,13.57
2022-10-12T23:46:28.160Z,13.52
2022-10-12T23:48:58.337Z,13.44
2022-10-12T23:51:25.960Z,13.47
2022-10-12T23:53:54.031Z,13.38
2022-10-12T23:56:21.567Z,13.29
2022-10-12T23:58:49.189Z,13.25
